Great Falls (GTF/KGTF)

Map

Information

Location
Great Falls , MT
Local Time
22:29 / 10:29 pm
GMT Time
02:29 / 2:29 am
Gates
Unassigned
No FAA reported delays
METAR KGTF 280153Z 32005KT 10SM BKN065 OVC080 08/M01 A2995 RMK AO2 SLP163 T00781011
TAF KGTF 272320Z 2800/2824 27010KT P6SM BKN060 TEMPO 2800/2803 31015G22KT -SHRA SCT010 OVC030 FM280300 25010KT P6SM SCT070 BKN150
  • No charts available